createdAt,value
2019-03-19T00:01:06.843Z,99.50
2019-03-19T00:03:37.492Z,99.30
2019-03-19T00:06:07.930Z,99.10
2019-03-19T00:08:38.336Z,99.10
2019-03-19T00:11:08.938Z,98.70
2019-03-19T00:13:39.723Z,98.60
2019-03-19T00:16:12.190Z,98.80
2019-03-19T00:18:42.649Z,99.10
2019-03-19T00:21:13.259Z,99.10
2019-03-19T00:23:43.749Z,99.20
2019-03-19T00:26:14.199Z,99.30
2019-03-19T00:28:44.618Z,99.30
2019-03-19T00:31:15.134Z,99.40
2019-03-19T00:33:45.579Z,99.40
2019-03-19T00:36:17.527Z,99.50
2019-03-19T00:38:48.304Z,99.60
2019-03-19T00:41:18.833Z,99.60
2019-03-19T00:43:49.260Z,99.60
2019-03-19T00:46:19.692Z,99.60
2019-03-19T00:48:50.367Z,99.60
2019-03-19T00:51:20.877Z,99.60
2019-03-19T00:53:51.315Z,99.60
2019-03-19T00:56:21.699Z,99.50
2019-03-19T00:58:52.194Z,99.70
2019-03-19T01:01:22.646Z,99.90
2019-03-19T01:03:53.088Z,99.90
2019-03-19T01:06:23.546Z,99.90
2019-03-19T01:08:53.987Z,99.90
2019-03-19T01:11:24.735Z,99.90
2019-03-19T01:13:55.178Z,99.90
2019-03-19T01:16:25.674Z,99.90
2019-03-19T01:18:56.141Z,99.90
2019-03-19T01:21:26.549Z,99.50
2019-03-19T01:23:56.996Z,99.90
2019-03-19T01:26:27.424Z,99.50
2019-03-19T01:28:57.859Z,99.70
2019-03-19T01:31:28.422Z,99.60
2019-03-19T01:33:59.202Z,99.60
2019-03-19T01:36:29.697Z,99.70
2019-03-19T01:39:00.112Z,99.70
2019-03-19T01:41:30.669Z,99.80
2019-03-19T01:44:01.200Z,99.90
2019-03-19T01:46:31.621Z,99.90
2019-03-19T01:49:02.356Z,99.90
2019-03-19T01:51:33.079Z,99.90
2019-03-19T01:54:03.635Z,99.90
2019-03-19T01:56:34.169Z,99.90
2019-03-19T01:59:04.656Z,99.90
2019-03-19T02:01:35.351Z,99.90
2019-03-19T02:04:05.991Z,99.90
2019-03-19T02:06:36.459Z,99.90
2019-03-19T02:09:09.634Z,99.90
2019-03-19T02:11:40.094Z,99.90
2019-03-19T02:14:10.540Z,99.90
2019-03-19T02:16:40.965Z,99.90
2019-03-19T02:19:11.402Z,99.90
2019-03-19T02:21:41.855Z,99.90
2019-03-19T02:24:12.291Z,99.90
2019-03-19T02:26:42.997Z,99.90
2019-03-19T02:29:13.391Z,99.90
2019-03-19T02:31:44.129Z,99.90
2019-03-19T02:34:14.518Z,99.90
2019-03-19T02:36:44.982Z,99.90
2019-03-19T02:39:15.433Z,99.90
2019-03-19T02:41:45.966Z,99.90
2019-03-19T02:44:16.430Z,99.90
2019-03-19T02:46:46.933Z,99.90
2019-03-19T02:49:17.387Z,99.90
2019-03-19T02:51:47.833Z,99.90
2019-03-19T02:54:18.236Z,99.90
2019-03-19T02:56:48.655Z,99.90
2019-03-19T02:59:19.075Z,99.90
2019-03-19T03:01:49.518Z,99.90
2019-03-19T03:04:19.912Z,99.90
2019-03-19T03:06:50.330Z,99.90
2019-03-19T03:09:20.796Z,99.90
2019-03-19T03:11:51.221Z,99.90
2019-03-19T03:14:21.666Z,99.90
2019-03-19T03:16:52.109Z,99.90
2019-03-19T03:19:22.559Z,99.90
2019-03-19T03:21:52.977Z,99.90
2019-03-19T03:24:23.378Z,99.90
2019-03-19T03:26:53.804Z,99.90
2019-03-19T03:29:24.248Z,99.90
2019-03-19T03:31:54.701Z,99.90
2019-03-19T03:34:25.150Z,99.90
2019-03-19T03:36:55.600Z,99.90
2019-03-19T03:39:26.057Z,99.90
2019-03-19T03:41:56.508Z,99.90
2019-03-19T03:44:26.966Z,99.90
2019-03-19T03:46:57.360Z,99.90
2019-03-19T03:49:27.785Z,99.90
2019-03-19T03:52:00.263Z,99.90
2019-03-19T03:54:31.103Z,99.90
2019-03-19T03:57:02.883Z,99.90
2019-03-19T03:59:33.405Z,99.90
2019-03-19T04:02:04.008Z,99.90
2019-03-19T04:04:34.434Z,99.90
2019-03-19T04:07:04.944Z,99.90
2019-03-19T04:09:35.709Z,99.90
2019-03-19T04:12:06.199Z,99.90
2019-03-19T04:14:36.686Z,99.90
2019-03-19T04:17:07.105Z,99.90
2019-03-19T04:19:37.597Z,99.90
2019-03-19T04:22:08.246Z,99.90
2019-03-19T04:24:38.901Z,99.90
2019-03-19T04:27:15.783Z,99.90
2019-03-19T04:29:41.585Z,99.90
2019-03-19T04:32:14.269Z,99.90
2019-03-19T04:34:44.701Z,99.90
2019-03-19T04:37:15.144Z,99.90
2019-03-19T04:39:45.554Z,99.90
2019-03-19T04:42:15.985Z,99.90
2019-03-19T04:44:46.402Z,99.90
2019-03-19T04:47:16.888Z,99.90
2019-03-19T04:49:47.247Z,99.90
2019-03-19T04:52:17.696Z,99.90
2019-03-19T04:54:48.125Z,99.90
2019-03-19T04:57:26.290Z,99.90
2019-03-19T04:59:50.705Z,99.90
2019-03-19T05:02:21.109Z,99.90
2019-03-19T05:04:51.546Z,99.90
2019-03-19T05:07:21.970Z,99.90
2019-03-19T05:09:52.401Z,99.90
2019-03-19T05:12:22.802Z,99.90
2019-03-19T05:14:53.215Z,99.90
2019-03-19T05:17:24.074Z,99.90
2019-03-19T05:19:54.531Z,99.90
2019-03-19T05:22:25.155Z,99.90
2019-03-19T05:24:55.878Z,99.90
2019-03-19T05:27:36.859Z,99.90
2019-03-19T05:29:58.591Z,99.90
2019-03-19T05:32:29.059Z,99.90
2019-03-19T05:34:59.753Z,99.90
2019-03-19T05:37:30.187Z,99.90
2019-03-19T05:40:00.678Z,99.90
2019-03-19T05:42:31.141Z,99.90
2019-03-19T05:45:01.585Z,99.90
2019-03-19T05:47:37.085Z,99.90
2019-03-19T05:50:04.939Z,99.90
2019-03-19T05:52:35.429Z,99.90
2019-03-19T05:55:06.385Z,99.90
2019-03-19T05:57:48.211Z,99.90
2019-03-19T06:00:10.712Z,99.90
2019-03-19T06:02:41.174Z,99.90
2019-03-19T06:05:12.440Z,99.90
2019-03-19T06:07:42.833Z,99.90
2019-03-19T06:10:13.370Z,99.90
2019-03-19T06:12:43.796Z,99.90
2019-03-19T06:15:14.331Z,99.90
2019-03-19T06:17:44.924Z,99.90
2019-03-19T06:20:15.384Z,99.90
2019-03-19T06:22:45.822Z,99.90
2019-03-19T06:25:16.691Z,99.90
2019-03-19T06:27:47.217Z,99.90
2019-03-19T06:30:18.268Z,99.90
2019-03-19T06:32:48.794Z,99.90
2019-03-19T06:35:19.336Z,99.90
2019-03-19T06:37:49.882Z,99.90
2019-03-19T06:40:20.342Z,99.90
2019-03-19T06:42:50.783Z,99.90
2019-03-19T06:45:23.092Z,99.80
2019-03-19T06:47:53.361Z,99.60
2019-03-19T06:50:23.791Z,99.50
2019-03-19T06:52:54.245Z,99.30
2019-03-19T06:55:24.673Z,99.10
2019-03-19T06:57:55.097Z,98.90
2019-03-19T07:00:25.752Z,98.70
2019-03-19T07:02:56.266Z,98.00
2019-03-19T07:05:26.885Z,91.60
2019-03-19T07:07:57.319Z,78.40
2019-03-19T07:10:27.810Z,66.30
2019-03-19T07:12:58.625Z,58.60
2019-03-19T07:15:29.060Z,54.50
2019-03-19T07:17:59.513Z,49.40
2019-03-19T07:20:29.962Z,47.30
2019-03-19T07:23:00.402Z,43.00
2019-03-19T07:25:30.911Z,41.70
2019-03-19T07:28:01.350Z,40.30
2019-03-19T07:30:31.754Z,39.90
2019-03-19T07:33:02.201Z,39.10
2019-03-19T07:35:32.748Z,38.50
2019-03-19T07:38:03.207Z,36.50
2019-03-19T07:40:33.647Z,36.40
2019-03-19T07:43:04.409Z,35.30
2019-03-19T07:45:34.872Z,33.50
2019-03-19T07:48:05.292Z,32.70
2019-03-19T07:50:35.742Z,32.40
2019-03-19T07:53:06.195Z,31.20
2019-03-19T07:55:36.608Z,31.50
2019-03-19T07:58:07.102Z,31.60
2019-03-19T08:00:37.563Z,31.30
2019-03-19T08:03:16.016Z,29.90
2019-03-19T08:05:40.283Z,28.60
2019-03-19T08:08:10.734Z,27.90
2019-03-19T08:10:41.155Z,28.10
2019-03-19T08:13:11.624Z,27.00
2019-03-19T08:15:42.154Z,26.60
2019-03-19T08:18:12.670Z,26.40
2019-03-19T08:20:43.170Z,26.20
2019-03-19T08:23:13.659Z,26.50
2019-03-19T08:25:44.100Z,25.00
2019-03-19T08:28:14.869Z,24.30
2019-03-19T08:30:46.256Z,23.90
2019-03-19T08:33:16.736Z,24.00
2019-03-19T08:35:47.282Z,23.60
2019-03-19T08:38:17.767Z,24.10
2019-03-19T08:40:48.210Z,23.10
2019-03-19T08:43:20.353Z,21.50
2019-03-19T08:45:51.011Z,19.40
2019-03-19T08:48:21.460Z,19.40
2019-03-19T08:50:51.907Z,19.50
2019-03-19T08:53:22.362Z,20.90
2019-03-19T08:55:52.850Z,22.30
2019-03-19T08:58:23.365Z,23.60
2019-03-19T09:00:53.834Z,24.70
2019-03-19T09:03:24.309Z,25.80
2019-03-19T09:05:54.795Z,26.20
2019-03-19T09:08:25.262Z,26.50
2019-03-19T09:10:55.798Z,27.70
2019-03-19T09:13:26.309Z,27.30
2019-03-19T09:15:57.148Z,24.30
2019-03-19T09:18:27.847Z,23.30
2019-03-19T09:20:58.914Z,21.00
2019-03-19T09:23:29.349Z,19.70
2019-03-19T09:25:59.946Z,18.90
2019-03-19T09:28:30.369Z,19.40
2019-03-19T09:31:00.939Z,18.00
2019-03-19T09:33:31.458Z,18.10
2019-03-19T09:36:03.558Z,18.20
2019-03-19T09:38:34.082Z,19.00
2019-03-19T09:41:04.532Z,17.80
2019-03-19T09:43:35.229Z,17.90
2019-03-19T09:46:05.708Z,18.30
2019-03-19T09:48:36.191Z,17.00
2019-03-19T09:51:06.633Z,18.00
2019-03-19T09:53:37.199Z,18.40
2019-03-19T09:56:07.630Z,18.60
2019-03-19T09:58:38.386Z,19.50
2019-03-19T10:01:10.706Z,21.40
2019-03-19T10:03:41.205Z,22.00
2019-03-19T10:06:14.342Z,22.70
2019-03-19T10:08:44.086Z,22.70
2019-03-19T10:11:14.587Z,23.60
2019-03-19T10:13:45.069Z,24.70
2019-03-19T10:16:15.654Z,25.50
2019-03-19T10:18:46.066Z,26.00
2019-03-19T10:21:16.590Z,25.40
2019-03-19T10:23:47.032Z,26.40
2019-03-19T10:26:17.487Z,27.40
2019-03-19T10:28:47.945Z,27.00
2019-03-19T10:31:18.393Z,27.90
2019-03-19T10:33:48.851Z,26.90
2019-03-19T10:36:19.290Z,27.70
2019-03-19T10:38:49.750Z,25.80
2019-03-19T10:41:20.250Z,23.40
2019-03-19T10:43:50.717Z,22.40
2019-03-19T10:46:21.143Z,21.10
2019-03-19T10:48:51.641Z,22.60
2019-03-19T10:51:22.131Z,19.40
2019-03-19T10:53:52.800Z,19.10
2019-03-19T10:56:23.297Z,19.40
2019-03-19T10:58:53.738Z,18.90
2019-03-19T11:01:24.220Z,18.80
2019-03-19T11:03:54.797Z,18.60
2019-03-19T11:06:25.493Z,19.00
2019-03-19T11:08:55.897Z,19.40
2019-03-19T11:11:26.452Z,19.10
2019-03-19T11:13:56.958Z,19.70
2019-03-19T11:16:27.566Z,20.10
2019-03-19T11:18:57.991Z,20.10
2019-03-19T11:21:28.768Z,20.60
2019-03-19T11:23:59.197Z,20.60
2019-03-19T11:26:29.642Z,19.80
2019-03-19T11:29:00.068Z,20.60
2019-03-19T11:31:30.621Z,22.00
2019-03-19T11:34:01.071Z,22.70
2019-03-19T11:36:31.791Z,22.80
2019-03-19T11:39:02.287Z,21.00
2019-03-19T11:41:33.043Z,21.90
2019-03-19T11:44:05.992Z,20.70
2019-03-19T11:46:36.437Z,21.10
2019-03-19T11:49:06.887Z,22.00
2019-03-19T11:51:37.445Z,22.80
2019-03-19T11:54:07.882Z,23.80
2019-03-19T11:56:38.399Z,25.20
2019-03-19T11:59:09.026Z,26.40
2019-03-19T12:01:39.442Z,28.00
2019-03-19T12:04:09.875Z,29.00
2019-03-19T12:06:40.516Z,29.50
2019-03-19T12:09:11.205Z,30.00
2019-03-19T12:11:41.667Z,31.20
2019-03-19T12:14:12.144Z,31.30
2019-03-19T12:16:42.571Z,33.90
2019-03-19T12:19:13.042Z,32.80
2019-03-19T12:21:43.503Z,32.10
2019-03-19T12:24:13.934Z,32.60
2019-03-19T12:26:44.326Z,32.60
2019-03-19T12:29:14.823Z,32.20
2019-03-19T12:31:45.320Z,33.30
2019-03-19T12:34:15.789Z,34.60
2019-03-19T12:36:46.200Z,32.40
2019-03-19T12:39:16.702Z,31.80
2019-03-19T12:41:48.562Z,33.40
2019-03-19T12:44:19.209Z,35.20
2019-03-19T12:46:49.943Z,32.80
2019-03-19T12:49:20.685Z,32.90
2019-03-19T12:51:51.396Z,34.30
2019-03-19T12:54:22.367Z,33.80
2019-03-19T12:56:52.871Z,34.00
2019-03-19T12:59:23.558Z,33.80
2019-03-19T13:01:53.971Z,34.20
2019-03-19T13:04:24.386Z,34.20
2019-03-19T13:06:54.976Z,34.60
2019-03-19T13:09:25.578Z,35.70
2019-03-19T13:11:56.133Z,36.30
2019-03-19T13:14:26.606Z,37.10
2019-03-19T13:16:57.041Z,37.80
2019-03-19T13:19:27.641Z,37.50
2019-03-19T13:21:58.096Z,38.10
2019-03-19T13:24:28.561Z,38.10
2019-03-19T13:26:59.306Z,37.70
2019-03-19T13:29:29.778Z,38.30
2019-03-19T13:32:00.212Z,38.80
2019-03-19T13:34:30.836Z,38.70
2019-03-19T13:37:01.324Z,38.20
2019-03-19T13:39:31.771Z,39.10
2019-03-19T13:42:02.242Z,38.00
2019-03-19T13:44:32.871Z,37.90
2019-03-19T13:47:03.323Z,37.80
2019-03-19T13:49:33.905Z,39.50
2019-03-19T13:52:04.332Z,38.30
2019-03-19T13:54:34.883Z,37.80
2019-03-19T13:57:05.336Z,37.60
2019-03-19T13:59:36.195Z,37.40
2019-03-19T14:02:07.025Z,37.30
2019-03-19T14:04:37.527Z,37.70
2019-03-19T14:07:08.018Z,37.50
2019-03-19T14:09:38.858Z,37.70
2019-03-19T14:12:09.332Z,37.20
2019-03-19T14:14:39.793Z,37.20
2019-03-19T14:17:10.369Z,38.10
2019-03-19T14:19:40.882Z,38.00
2019-03-19T14:22:11.483Z,37.40
2019-03-19T14:24:41.983Z,37.30
2019-03-19T14:27:12.433Z,37.80
2019-03-19T14:29:42.940Z,37.60
2019-03-19T14:32:13.373Z,37.40
2019-03-19T14:34:43.817Z,37.60
2019-03-19T14:37:14.323Z,38.10
2019-03-19T14:39:44.826Z,37.70
2019-03-19T14:42:15.363Z,37.90
2019-03-19T14:44:45.860Z,38.00
2019-03-19T14:47:16.363Z,38.30
2019-03-19T14:49:49.744Z,38.80
2019-03-19T14:52:19.065Z,38.10
2019-03-19T14:54:49.512Z,38.00
2019-03-19T14:57:20.198Z,38.50
2019-03-19T14:59:50.639Z,38.20
2019-03-19T15:02:21.092Z,37.90
2019-03-19T15:04:51.539Z,36.50
2019-03-19T15:07:22.056Z,36.50
2019-03-19T15:09:52.522Z,36.60
2019-03-19T15:12:22.997Z,36.50
2019-03-19T15:14:53.456Z,37.00
2019-03-19T15:17:24.114Z,36.10
2019-03-19T15:19:54.588Z,35.40
2019-03-19T15:22:32.598Z,35.50
2019-03-19T15:24:57.402Z,35.70
2019-03-19T15:27:27.914Z,37.40
2019-03-19T15:29:58.361Z,37.70
2019-03-19T15:32:28.799Z,37.80
2019-03-19T15:34:59.357Z,38.00
2019-03-19T15:37:29.832Z,37.80
2019-03-19T15:40:00.342Z,36.30
2019-03-19T15:42:30.832Z,32.10
2019-03-19T15:45:01.210Z,33.20
2019-03-19T15:47:31.798Z,34.00
2019-03-19T15:50:02.269Z,32.90
2019-03-19T15:52:32.761Z,32.60
2019-03-19T15:55:03.226Z,32.00
2019-03-19T15:57:33.745Z,31.60
2019-03-19T16:00:04.204Z,31.30
2019-03-19T16:02:34.757Z,34.30
2019-03-19T16:05:06.907Z,34.40
2019-03-19T16:07:37.601Z,33.90
2019-03-19T16:10:08.660Z,33.20
2019-03-19T16:12:39.120Z,34.00
2019-03-19T16:15:11.547Z,33.40
2019-03-19T16:17:42.086Z,33.60
2019-03-19T16:20:14.641Z,33.50
2019-03-19T16:22:45.236Z,34.30
2019-03-19T16:25:15.897Z,34.40
2019-03-19T16:27:46.479Z,34.30
2019-03-19T16:30:17.308Z,34.30
2019-03-19T16:32:48.006Z,35.10
2019-03-19T16:35:18.725Z,35.10
2019-03-19T16:37:49.221Z,36.70
2019-03-19T16:40:19.743Z,37.40
2019-03-19T16:42:50.516Z,37.60
2019-03-19T16:45:21.748Z,39.50
2019-03-19T16:47:52.285Z,40.30
2019-03-19T16:50:22.779Z,40.40
2019-03-19T16:52:53.327Z,39.80
2019-03-19T16:55:23.765Z,40.90
2019-03-19T16:57:54.279Z,42.20
2019-03-19T17:00:24.724Z,42.90
2019-03-19T17:02:55.232Z,42.80
2019-03-19T17:05:26.025Z,42.70
2019-03-19T17:07:56.513Z,44.00
2019-03-19T17:10:27.144Z,45.00
2019-03-19T17:12:58.099Z,46.20
2019-03-19T17:15:28.772Z,46.90
2019-03-19T17:17:59.209Z,46.80
2019-03-19T17:20:29.659Z,47.40
2019-03-19T17:23:00.096Z,47.50
2019-03-19T17:25:30.612Z,48.40
2019-03-19T17:28:01.089Z,48.50
2019-03-19T17:30:31.583Z,48.80
2019-03-19T17:33:02.032Z,49.30
2019-03-19T17:35:32.584Z,50.20
2019-03-19T17:38:03.402Z,50.80
2019-03-19T17:40:41.213Z,51.40
2019-03-19T17:43:06.036Z,52.30
2019-03-19T17:45:36.711Z,52.80
2019-03-19T17:48:15.713Z,52.90
2019-03-19T17:50:40.810Z,53.30
2019-03-19T17:53:11.260Z,53.90
2019-03-19T17:55:41.905Z,54.10
2019-03-19T17:58:12.746Z,54.50
2019-03-19T18:00:44.963Z,54.90
2019-03-19T18:03:15.610Z,55.30
2019-03-19T18:05:46.280Z,56.10
2019-03-19T18:08:16.899Z,56.50
2019-03-19T18:10:47.445Z,57.10
2019-03-19T18:13:18.360Z,57.30
2019-03-19T18:15:49.031Z,57.70
2019-03-19T18:18:19.638Z,57.90
2019-03-19T18:20:50.260Z,58.30
2019-03-19T18:23:20.848Z,58.70
2019-03-19T18:25:51.609Z,58.80
2019-03-19T18:28:22.535Z,59.50
2019-03-19T18:30:53.033Z,59.60
2019-03-19T18:33:23.680Z,60.00
2019-03-19T18:35:56.300Z,60.30
2019-03-19T18:38:26.418Z,60.50
2019-03-19T18:40:56.894Z,60.90
2019-03-19T18:43:27.440Z,61.90
2019-03-19T18:45:58.227Z,63.20
2019-03-19T18:48:29.213Z,64.00
2019-03-19T18:51:00.212Z,64.60
2019-03-19T18:53:30.730Z,65.20
2019-03-19T18:56:01.312Z,66.00
2019-03-19T18:58:32.466Z,65.90
2019-03-19T19:01:02.934Z,66.30
2019-03-19T19:03:33.447Z,66.70
2019-03-19T19:06:04.215Z,66.70
2019-03-19T19:08:34.631Z,67.30
2019-03-19T19:11:05.410Z,68.10
2019-03-19T19:13:35.898Z,68.80
2019-03-19T19:16:07.672Z,69.00
2019-03-19T19:18:38.137Z,69.00
2019-03-19T19:21:08.648Z,69.30
2019-03-19T19:23:39.237Z,70.00
2019-03-19T19:26:09.725Z,70.40
2019-03-19T19:28:40.237Z,71.50
2019-03-19T19:31:11.023Z,72.30
2019-03-19T19:33:41.577Z,72.70
2019-03-19T19:36:12.185Z,73.30
2019-03-19T19:38:42.658Z,74.00
2019-03-19T19:41:13.143Z,75.30
2019-03-19T19:43:44.303Z,75.50
2019-03-19T19:46:15.942Z,75.90
2019-03-19T19:48:46.579Z,76.40
2019-03-19T19:51:17.424Z,76.10
2019-03-19T19:53:48.218Z,77.10
2019-03-19T19:56:21.531Z,77.50
2019-03-19T19:58:52.030Z,77.90
2019-03-19T20:01:22.958Z,78.60
2019-03-19T20:03:53.838Z,79.60
2019-03-19T20:06:24.496Z,80.10
2019-03-19T20:08:55.193Z,80.60
2019-03-19T20:11:26.034Z,81.10
2019-03-19T20:13:56.537Z,81.50
2019-03-19T20:16:27.034Z,82.00
2019-03-19T20:18:57.622Z,82.40
2019-03-19T20:21:28.317Z,82.60
2019-03-19T20:23:58.924Z,83.10
2019-03-19T20:26:29.674Z,83.90
2019-03-19T20:29:00.073Z,84.20
2019-03-19T20:31:30.599Z,84.60
2019-03-19T20:34:04.210Z,85.10
2019-03-19T20:36:34.804Z,85.50
2019-03-19T20:39:07.830Z,85.60
2019-03-19T20:41:38.944Z,85.90
2019-03-19T20:44:09.670Z,86.30
2019-03-19T20:46:40.353Z,86.40
2019-03-19T20:49:11.002Z,86.70
2019-03-19T20:51:41.494Z,87.60
2019-03-19T20:54:12.175Z,88.40
2019-03-19T20:56:42.645Z,89.80
2019-03-19T20:59:13.153Z,90.00
2019-03-19T21:01:43.625Z,90.50
2019-03-19T21:04:14.142Z,90.80
2019-03-19T21:06:45.049Z,91.20
2019-03-19T21:09:15.904Z,91.60
2019-03-19T21:11:46.488Z,92.00
2019-03-19T21:14:17.374Z,92.50
2019-03-19T21:16:47.876Z,92.70
2019-03-19T21:19:19.245Z,93.20
2019-03-19T21:21:49.756Z,93.60
2019-03-19T21:24:20.231Z,93.80
2019-03-19T21:26:50.637Z,93.80
2019-03-19T21:29:21.472Z,94.00
2019-03-19T21:31:51.995Z,94.20
2019-03-19T21:34:22.649Z,94.10
2019-03-19T21:36:53.151Z,94.20
2019-03-19T21:39:23.662Z,94.20
2019-03-19T21:41:54.175Z,94.10
2019-03-19T21:44:25.591Z,94.30
2019-03-19T21:46:56.061Z,94.60
2019-03-19T21:49:26.503Z,94.30
2019-03-19T21:51:58.519Z,94.40
2019-03-19T21:54:28.921Z,94.60
2019-03-19T21:56:59.473Z,94.90
2019-03-19T21:59:29.936Z,94.90
2019-03-19T22:02:00.506Z,95.00
2019-03-19T22:04:31.008Z,94.70
2019-03-19T22:07:01.756Z,94.60
2019-03-19T22:09:32.294Z,94.50
2019-03-19T22:12:02.983Z,94.40
2019-03-19T22:14:33.659Z,94.30
2019-03-19T22:17:04.091Z,94.20
2019-03-19T22:19:34.480Z,93.70
2019-03-19T22:22:05.144Z,93.60
2019-03-19T22:24:35.834Z,93.50
2019-03-19T22:27:06.289Z,93.40
2019-03-19T22:29:36.876Z,93.20
2019-03-19T22:32:07.349Z,92.90
2019-03-19T22:34:37.961Z,93.00
2019-03-19T22:37:09.286Z,93.00
2019-03-19T22:39:39.732Z,93.20
2019-03-19T22:42:10.200Z,93.30
2019-03-19T22:44:40.861Z,93.30
2019-03-19T22:47:11.402Z,93.50
2019-03-19T22:49:41.809Z,93.50
2019-03-19T22:52:12.260Z,93.60
2019-03-19T22:54:42.709Z,93.80
2019-03-19T22:57:13.241Z,93.70
2019-03-19T22:59:44.040Z,93.70
2019-03-19T23:02:14.513Z,93.60
2019-03-19T23:04:44.997Z,93.70
2019-03-19T23:07:15.792Z,93.80
2019-03-19T23:09:46.238Z,93.80
2019-03-19T23:12:17.067Z,94.00
2019-03-19T23:14:47.524Z,94.00
2019-03-19T23:17:18.938Z,94.40
2019-03-19T23:19:49.369Z,94.50
2019-03-19T23:22:19.811Z,94.60
2019-03-19T23:24:50.242Z,95.10
2019-03-19T23:27:20.775Z,94.80
2019-03-19T23:29:51.302Z,95.30
2019-03-19T23:32:21.924Z,95.50
2019-03-19T23:34:52.403Z,95.30
2019-03-19T23:37:22.837Z,95.50
2019-03-19T23:39:53.307Z,95.60
2019-03-19T23:42:23.739Z,95.40
2019-03-19T23:44:54.171Z,95.20
2019-03-19T23:47:24.784Z,95.00
2019-03-19T23:49:55.222Z,95.10
2019-03-19T23:52:25.642Z,95.30
2019-03-19T23:54:56.192Z,95.40
2019-03-19T23:57:26.684Z,95.30
2019-03-19T23:59:57.111Z,95.40
